Accueil
METAR-TAF:

METAR-TAF

Aéroports :

Belgaum, Inde

latitude: 15-51-33N, longitude: 74-37-03E, altitude: 758 m

Observation

Le bulletin a été fait il y a 2 heures et 35 minutes, à 13:00 UTC
Vent 6 kt de ouest
Température 31°C
Humidité 55%
Pression 1014 hPa
Visibilité 10 km ou plus
Quelques nuages à une hauteur de 1500 ft

METAR: VOBM 311300Z 27006KT 9999 FEW015 31/21 Q1014

Heure: 21:05 (15:35 UTC)

Prévision

Le bulletin a été fait il y a 4 heures et 35 minutes, à 11:00 UTC
Prévision valable du 31 à 12 UTC au 31 à 21 UTC
Vent 5 kt de est/sud-est
Visibilité: 6000 m
Nuages épars à une hauteur de 1500 ft

TAF: VOBM 311100Z 3112/3121 11005KT 6000 SCT015

Observations et prévisions météorologiques de plus de 4000 aéroports (messages METAR et TAF).

Les stations disponibles sont représentées par des disques jaunes et rouges sur la carte.

Passer la souris dessus pour voir le nom de la station.

Cliquer dessus pour voir les observations et prévisions météorologiques.

Pour changer de carte: cliquez sur les boutons verts avec une croix noire pour zoomer, sur le bouton vert avec un tiret pour effectuer un zoom arrière, ou sur les flèches vertes pour les cartes adjacentes.


METAR-TAF: